createdAt,value
2023-09-22T00:00:16.451Z,0.98
2023-09-22T00:02:46.847Z,1.10
2023-09-22T00:05:15.796Z,1.00
2023-09-22T00:07:44.788Z,1.00
2023-09-22T00:10:14.630Z,0.90
2023-09-22T00:12:43.296Z,1.10
2023-09-22T00:15:12.115Z,1.05
2023-09-22T00:17:40.617Z,1.25
2023-09-22T00:20:09.885Z,0.75
2023-09-22T00:22:38.439Z,1.00
2023-09-22T00:25:07.270Z,1.45
2023-09-22T00:27:35.551Z,1.00
2023-09-22T00:30:05.515Z,1.10
2023-09-22T00:32:34.247Z,1.27
2023-09-22T00:35:04.709Z,1.37
2023-09-22T00:37:34.595Z,1.40
2023-09-22T00:40:02.976Z,1.30
2023-09-22T00:42:31.225Z,1.27
2023-09-22T00:44:59.987Z,1.55
2023-09-22T00:47:29.129Z,1.10
2023-09-22T00:49:57.772Z,1.40
2023-09-22T00:52:28.377Z,1.62
2023-09-22T00:54:59.537Z,1.73
2023-09-22T00:57:29.049Z,1.27
2023-09-22T00:59:57.707Z,1.35
2023-09-22T01:02:28.843Z,1.65
2023-09-22T01:04:57.615Z,1.60
2023-09-22T01:07:27.056Z,1.70
2023-09-22T01:09:55.235Z,1.30
2023-09-22T01:12:23.927Z,1.58
2023-09-22T01:14:52.280Z,1.27
2023-09-22T01:17:22.645Z,1.40
2023-09-22T01:19:51.375Z,1.52
2023-09-22T01:22:20.512Z,1.50
2023-09-22T01:24:48.825Z,1.75
2023-09-22T01:27:18.630Z,1.42
2023-09-22T01:29:46.976Z,1.60
2023-09-22T01:32:16.149Z,1.50
2023-09-22T01:34:44.721Z,1.80
2023-09-22T01:37:14.126Z,1.58
2023-09-22T01:39:42.510Z,1.48
2023-09-22T01:42:11.647Z,1.70
2023-09-22T01:44:39.870Z,1.27
2023-09-22T01:47:08.300Z,1.52
2023-09-22T01:49:37.054Z,1.48
2023-09-22T01:52:05.414Z,1.60
2023-09-22T01:54:33.571Z,1.62
2023-09-22T01:57:02.320Z,1.73
2023-09-22T01:59:30.865Z,1.10
2023-09-22T02:01:59.302Z,1.23
2023-09-22T02:04:32.202Z,1.35
2023-09-22T02:07:00.769Z,1.42
2023-09-22T02:09:29.618Z,1.58
2023-09-22T02:11:58.306Z,1.65
2023-09-22T02:14:26.480Z,1.45
2023-09-22T02:16:54.809Z,1.30
2023-09-22T02:19:23.545Z,1.55
2023-09-22T02:21:52.007Z,1.90
2023-09-22T02:24:21.172Z,1.40
2023-09-22T02:26:51.848Z,1.30
2023-09-22T02:29:20.093Z,1.92
2023-09-22T02:31:48.306Z,1.30
2023-09-22T02:34:22.088Z,1.50
2023-09-22T02:36:51.029Z,1.20
2023-09-22T02:39:19.532Z,1.48
2023-09-22T02:41:47.798Z,1.45
2023-09-22T02:44:17.113Z,1.73
2023-09-22T02:46:46.764Z,1.37
2023-09-22T02:49:15.328Z,1.55
2023-09-22T02:51:43.569Z,1.80
2023-09-22T02:54:12.631Z,1.10
2023-09-22T02:56:40.965Z,1.75
2023-09-22T02:59:09.168Z,1.87
2023-09-22T03:01:37.962Z,1.50
2023-09-22T03:04:10.847Z,1.67
2023-09-22T03:06:39.613Z,1.30
2023-09-22T03:09:08.225Z,1.33
2023-09-22T03:11:37.025Z,1.73
2023-09-22T03:14:05.874Z,1.58
2023-09-22T03:16:34.230Z,1.15
2023-09-22T03:19:02.803Z,1.33
2023-09-22T03:21:31.614Z,1.52
2023-09-22T03:23:59.906Z,1.40
2023-09-22T03:26:28.419Z,1.67
2023-09-22T03:28:57.178Z,1.40
2023-09-22T03:31:25.582Z,1.75
2023-09-22T03:33:54.523Z,1.62
2023-09-22T03:36:23.296Z,1.58
2023-09-22T03:38:53.076Z,1.33
2023-09-22T03:41:23.916Z,1.60
2023-09-22T03:43:52.413Z,1.70
2023-09-22T03:46:20.703Z,1.92
2023-09-22T03:48:49.883Z,1.10
2023-09-22T03:51:18.568Z,1.73
2023-09-22T03:53:47.081Z,1.55
2023-09-22T03:56:15.320Z,1.52
2023-09-22T03:58:44.707Z,1.40
2023-09-22T04:01:13.111Z,1.75
2023-09-22T04:03:41.897Z,1.42
2023-09-22T04:06:10.407Z,1.55
2023-09-22T04:08:38.573Z,1.37
2023-09-22T04:11:08.665Z,1.55
2023-09-22T04:13:39.507Z,1.62
2023-09-22T04:16:08.245Z,1.65
2023-09-22T04:18:36.716Z,1.60
2023-09-22T04:21:08.106Z,1.40
2023-09-22T04:23:36.744Z,1.80
2023-09-22T04:26:11.073Z,1.55
2023-09-22T04:31:07.589Z,1.83
2023-09-22T04:33:35.877Z,1.55
2023-09-22T04:36:04.469Z,2.03
2023-09-22T04:38:33.086Z,2.03
2023-09-22T04:41:02.678Z,2.00
2023-09-22T04:43:31.837Z,1.92
2023-09-22T04:46:02.561Z,1.90
2023-09-22T04:48:31.384Z,2.12
2023-09-22T04:50:59.833Z,2.50
2023-09-22T04:53:29.412Z,2.85
2023-09-22T04:56:05.893Z,2.55
2023-09-22T04:58:35.083Z,2.25
2023-09-22T05:01:04.859Z,2.58
2023-09-22T05:03:33.361Z,2.10
2023-09-22T05:06:07.414Z,2.53
2023-09-22T05:08:37.871Z,2.55
2023-09-22T05:11:06.798Z,2.60
2023-09-22T05:13:36.977Z,2.58
2023-09-22T05:16:14.667Z,3.20
2023-09-22T05:18:43.055Z,2.62
2023-09-22T05:21:11.649Z,2.40
2023-09-22T05:23:40.362Z,2.17
2023-09-22T05:26:10.120Z,2.95
2023-09-22T05:28:38.932Z,1.92
2023-09-22T05:31:09.186Z,2.08
2023-09-22T05:33:40.120Z,1.83
2023-09-22T05:36:08.474Z,1.67
2023-09-22T05:38:37.666Z,2.05
2023-09-22T05:41:06.248Z,2.25
2023-09-22T05:43:34.634Z,1.77
2023-09-22T05:46:03.177Z,1.50
2023-09-22T05:48:31.902Z,1.75
2023-09-22T05:51:01.886Z,2.08
2023-09-22T05:53:31.315Z,1.85
2023-09-22T05:56:10.154Z,2.40
2023-09-22T05:58:39.916Z,1.85
2023-09-22T06:01:13.449Z,1.95
2023-09-22T06:03:43.576Z,1.70
2023-09-22T06:06:14.468Z,1.77
2023-09-22T06:08:46.416Z,1.80
2023-09-22T06:11:15.560Z,1.75
2023-09-22T06:13:44.386Z,1.92
2023-09-22T06:16:13.411Z,2.00
2023-09-22T06:18:42.334Z,2.28
2023-09-22T06:21:11.537Z,1.80
2023-09-22T06:23:39.829Z,1.83
2023-09-22T06:26:11.996Z,2.12
2023-09-22T06:28:40.838Z,1.65
2023-09-22T06:31:09.625Z,1.90
2023-09-22T06:33:38.100Z,2.10
2023-09-22T06:36:09.718Z,2.10
2023-09-22T06:38:37.899Z,2.65
2023-09-22T06:41:06.711Z,2.40
2023-09-22T06:43:35.336Z,1.95
2023-09-22T06:46:05.184Z,2.78
2023-09-22T06:48:34.344Z,2.22
2023-09-22T06:51:02.993Z,2.25
2023-09-22T06:53:34.397Z,2.15
2023-09-22T06:56:08.113Z,2.40
2023-09-22T06:58:37.612Z,2.20
2023-09-22T07:01:15.636Z,2.22
2023-09-22T07:03:46.218Z,1.87
2023-09-22T07:06:19.876Z,2.60
2023-09-22T07:08:49.786Z,2.53
2023-09-22T07:11:19.615Z,2.25
2023-09-22T07:13:47.902Z,2.35
2023-09-22T07:16:16.612Z,2.42
2023-09-22T07:18:45.331Z,2.47
2023-09-22T07:21:14.010Z,2.47
2023-09-22T07:23:42.735Z,2.70
2023-09-22T07:26:11.341Z,2.10
2023-09-22T07:28:40.653Z,2.20
2023-09-22T07:31:13.040Z,2.12
2023-09-22T07:33:43.960Z,2.90
2023-09-22T07:36:14.246Z,1.95
2023-09-22T07:38:42.944Z,2.50
2023-09-22T07:41:11.249Z,2.58
2023-09-22T07:43:39.728Z,1.92
2023-09-22T07:46:09.434Z,2.33
2023-09-22T07:48:38.814Z,2.22
2023-09-22T07:51:07.870Z,2.28
2023-09-22T07:53:36.366Z,2.10
2023-09-22T07:56:04.871Z,2.30
2023-09-22T07:58:33.444Z,2.25
2023-09-22T08:01:02.101Z,2.90
2023-09-22T08:03:30.998Z,2.00
2023-09-22T08:05:59.663Z,2.00
2023-09-22T08:08:30.647Z,2.00
2023-09-22T08:10:59.970Z,2.40
2023-09-22T08:13:28.465Z,2.00
2023-09-22T08:15:56.749Z,2.35
2023-09-22T08:18:25.451Z,2.22
2023-09-22T08:20:55.370Z,2.40
2023-09-22T08:23:29.049Z,1.75
2023-09-22T08:26:07.194Z,2.05
2023-09-22T08:28:39.024Z,2.85
2023-09-22T08:31:08.810Z,1.70
2023-09-22T08:33:37.253Z,1.90
2023-09-22T08:36:05.998Z,1.90
2023-09-22T08:38:35.220Z,1.83
2023-09-22T08:41:04.767Z,2.40
2023-09-22T08:43:34.356Z,2.37
2023-09-22T08:46:03.647Z,1.95
2023-09-22T08:48:32.048Z,2.10
2023-09-22T08:51:00.459Z,1.80
2023-09-22T08:53:31.292Z,2.05
2023-09-22T08:55:59.720Z,2.42
2023-09-22T08:58:28.696Z,2.08
2023-09-22T09:00:57.604Z,2.35
2023-09-22T09:03:28.141Z,1.98
2023-09-22T09:06:07.757Z,2.22
2023-09-22T09:08:36.044Z,2.03
2023-09-22T09:11:10.379Z,2.08
2023-09-22T09:13:39.407Z,2.08
2023-09-22T09:16:09.380Z,2.45
2023-09-22T09:18:38.400Z,2.12
2023-09-22T09:21:12.637Z,2.40
2023-09-22T09:23:59.942Z,2.03
2023-09-22T09:26:28.772Z,2.05
2023-09-22T09:28:58.167Z,1.77
2023-09-22T09:31:49.265Z,2.28
2023-09-22T09:34:18.008Z,1.87
2023-09-22T09:36:46.305Z,1.92
2023-09-22T09:39:14.992Z,1.30
2023-09-22T09:41:44.356Z,1.60
2023-09-22T09:44:13.205Z,2.03
2023-09-22T09:46:44.141Z,1.85
2023-09-22T09:49:15.343Z,2.37
2023-09-22T09:51:49.116Z,2.30
2023-09-22T09:54:21.238Z,2.35
2023-09-22T09:56:52.746Z,1.83
2023-09-22T09:59:23.810Z,1.60
2023-09-22T10:01:53.611Z,1.75
2023-09-22T10:04:23.035Z,1.55
2023-09-22T10:06:53.070Z,1.87
2023-09-22T10:09:22.109Z,2.47
2023-09-22T10:11:51.620Z,2.30
2023-09-22T10:14:48.948Z,1.77
2023-09-22T10:17:26.131Z,2.15
2023-09-22T10:19:54.975Z,2.05
2023-09-22T10:22:25.907Z,2.17
2023-09-22T10:25:14.342Z,1.70
2023-09-22T10:28:03.548Z,1.90
2023-09-22T10:30:45.310Z,1.80
2023-09-22T10:33:17.074Z,1.80
2023-09-22T10:35:45.052Z,1.90
2023-09-22T10:38:13.597Z,2.10
2023-09-22T10:40:59.671Z,2.08
2023-09-22T10:43:28.944Z,1.80
2023-09-22T10:45:57.850Z,2.40
2023-09-22T10:48:32.209Z,2.30
2023-09-22T10:51:00.555Z,2.30
2023-09-22T10:53:28.921Z,1.65
2023-09-22T10:55:59.595Z,1.85
2023-09-22T10:58:28.101Z,1.83
2023-09-22T11:01:09.438Z,1.92
2023-09-22T11:03:39.050Z,1.42
2023-09-22T11:06:09.002Z,1.70
2023-09-22T11:08:57.864Z,1.70
2023-09-22T11:11:26.052Z,2.20
2023-09-22T11:13:58.479Z,1.77
2023-09-22T11:16:27.253Z,1.17
2023-09-22T11:19:07.043Z,1.50
2023-09-22T11:21:39.983Z,1.52
2023-09-22T11:24:11.599Z,1.27
2023-09-22T11:26:44.285Z,1.45
2023-09-22T11:29:13.208Z,1.23
2023-09-22T11:31:52.083Z,1.98
2023-09-22T11:34:21.619Z,1.48
2023-09-22T11:36:54.241Z,1.60
2023-09-22T11:39:28.107Z,1.30
2023-09-22T11:41:57.765Z,1.50
2023-09-22T11:44:26.378Z,1.50
2023-09-22T11:46:54.468Z,1.65
2023-09-22T11:49:23.358Z,1.55
2023-09-22T11:52:01.530Z,1.30
2023-09-22T11:54:31.561Z,1.55
2023-09-22T11:57:00.564Z,1.30
2023-09-22T11:59:33.356Z,1.35
2023-09-22T12:02:04.276Z,1.60
2023-09-22T12:04:36.343Z,1.58
2023-09-22T12:07:05.006Z,1.50
2023-09-22T12:09:33.701Z,1.10
2023-09-22T12:12:01.978Z,0.95
2023-09-22T12:14:31.022Z,0.90
2023-09-22T12:16:59.772Z,1.10
2023-09-22T12:19:28.494Z,1.35
2023-09-22T12:21:57.409Z,1.25
2023-09-22T12:24:25.705Z,1.30
2023-09-22T12:26:53.858Z,1.48
2023-09-22T12:29:21.917Z,1.77
2023-09-22T12:31:50.633Z,1.30
2023-09-22T12:34:19.087Z,1.12
2023-09-22T12:36:49.810Z,1.50
2023-09-22T12:39:19.535Z,1.60
2023-09-22T12:41:48.250Z,1.30
2023-09-22T12:44:16.316Z,1.33
2023-09-22T12:46:44.952Z,1.42
2023-09-22T12:49:13.126Z,1.25
2023-09-22T12:51:41.604Z,1.60
2023-09-22T12:54:10.973Z,1.23
2023-09-22T12:56:39.082Z,1.85
2023-09-22T12:59:10.157Z,1.27
2023-09-22T13:01:38.778Z,1.20
2023-09-22T13:04:07.625Z,1.67
2023-09-22T13:06:35.885Z,1.45
2023-09-22T13:09:04.422Z,1.58
2023-09-22T13:11:33.028Z,1.62
2023-09-22T13:14:02.774Z,1.50
2023-09-22T13:16:31.778Z,1.10
2023-09-22T13:18:59.849Z,1.17
2023-09-22T13:21:28.618Z,1.55
2023-09-22T13:23:57.168Z,1.30
2023-09-22T13:26:25.545Z,1.65
2023-09-22T13:28:58.160Z,1.30
2023-09-22T13:31:28.057Z,1.20
2023-09-22T13:33:58.224Z,1.87
2023-09-22T13:36:27.480Z,1.37
2023-09-22T13:38:55.876Z,1.42
2023-09-22T13:41:25.066Z,1.70
2023-09-22T13:43:53.476Z,1.45
2023-09-22T13:46:22.644Z,1.70
2023-09-22T13:48:51.880Z,1.70
2023-09-22T13:51:20.486Z,1.33
2023-09-22T13:53:49.037Z,1.60
2023-09-22T13:56:19.334Z,1.55
2023-09-22T13:58:51.469Z,2.08
2023-09-22T14:01:23.629Z,1.70
2023-09-22T14:03:52.574Z,1.62
2023-09-22T14:06:25.192Z,1.58
2023-09-22T14:08:54.803Z,1.83
2023-09-22T14:11:23.359Z,1.50
2023-09-22T14:13:51.661Z,1.67
2023-09-22T14:16:20.246Z,1.50
2023-09-22T14:18:48.815Z,1.73
2023-09-22T14:21:17.196Z,1.50
2023-09-22T14:23:45.886Z,1.80
2023-09-22T14:26:14.954Z,1.67
2023-09-22T14:28:43.844Z,1.50
2023-09-22T14:31:17.100Z,1.85
2023-09-22T14:33:46.671Z,1.92
2023-09-22T14:36:15.606Z,1.60
2023-09-22T14:38:43.754Z,1.92
2023-09-22T14:41:11.976Z,1.50
2023-09-22T14:43:40.753Z,1.60
2023-09-22T14:46:15.037Z,1.35
2023-09-22T14:48:45.245Z,1.73
2023-09-22T14:51:13.515Z,1.37
2023-09-22T14:53:41.933Z,1.40
2023-09-22T14:56:10.428Z,1.12
2023-09-22T14:58:39.390Z,1.40
2023-09-22T15:01:11.341Z,1.33
2023-09-22T15:03:41.767Z,1.00
2023-09-22T15:06:09.920Z,1.90
2023-09-22T15:08:38.716Z,1.40
2023-09-22T15:11:07.120Z,1.48
2023-09-22T15:13:36.700Z,1.23
2023-09-22T15:16:09.518Z,1.40
2023-09-22T15:18:40.805Z,1.55
2023-09-22T15:21:12.703Z,1.23
2023-09-22T15:23:42.616Z,1.55
2023-09-22T15:26:12.361Z,1.50
2023-09-22T15:28:41.710Z,1.55
2023-09-22T15:31:11.560Z,1.40
2023-09-22T15:33:40.019Z,1.45
2023-09-22T15:36:08.736Z,1.52
2023-09-22T15:38:37.030Z,1.27
2023-09-22T15:41:07.222Z,1.67
2023-09-22T15:43:36.894Z,1.58
2023-09-22T15:46:06.352Z,1.40
2023-09-22T15:48:35.991Z,1.75
2023-09-22T15:51:05.265Z,1.17
2023-09-22T15:53:36.961Z,1.80
2023-09-22T15:56:07.523Z,1.40
2023-09-22T15:58:36.148Z,1.23
2023-09-22T16:01:05.181Z,1.50
2023-09-22T16:03:35.388Z,1.48
2023-09-22T16:06:04.622Z,1.37
2023-09-22T16:08:32.966Z,1.62
2023-09-22T16:11:01.831Z,1.62
2023-09-22T16:13:30.422Z,1.30
2023-09-22T16:16:03.367Z,1.73
2023-09-22T16:18:32.548Z,1.20
2023-09-22T16:21:04.563Z,1.62
2023-09-22T16:23:33.791Z,1.17
2023-09-22T16:26:09.539Z,1.30
2023-09-22T16:28:39.119Z,1.25
2023-09-22T16:31:07.770Z,1.30
2023-09-22T16:33:36.373Z,1.30
2023-09-22T16:36:08.057Z,1.23
2023-09-22T16:38:37.923Z,1.70
2023-09-22T16:41:09.560Z,1.12
2023-09-22T16:43:40.649Z,1.17
2023-09-22T16:46:09.573Z,1.08
2023-09-22T16:48:38.191Z,1.20
2023-09-22T16:51:06.629Z,1.20
2023-09-22T16:53:35.185Z,1.17
2023-09-22T16:56:12.261Z,1.50
2023-09-22T16:58:42.324Z,1.35
2023-09-22T17:01:14.511Z,1.27
2023-09-22T17:03:43.058Z,0.98
2023-09-22T17:06:11.407Z,1.23
2023-09-22T17:08:40.150Z,0.90
2023-09-22T17:11:09.934Z,1.02
2023-09-22T17:13:38.616Z,1.37
2023-09-22T17:16:07.186Z,1.37
2023-09-22T17:18:35.718Z,1.40
2023-09-22T17:21:10.699Z,1.20
2023-09-22T17:23:46.146Z,1.60
2023-09-22T17:26:14.433Z,1.20
2023-09-22T17:28:42.688Z,1.48
2023-09-22T17:31:11.807Z,1.20
2023-09-22T17:33:40.050Z,1.35
2023-09-22T17:36:09.269Z,1.27
2023-09-22T17:38:39.013Z,1.30
2023-09-22T17:41:07.357Z,1.40
2023-09-22T17:43:36.872Z,1.48
2023-09-22T17:46:05.867Z,1.20
2023-09-22T17:48:35.015Z,1.77
2023-09-22T17:51:07.876Z,1.48
2023-09-22T17:53:36.604Z,1.33
2023-09-22T17:56:07.957Z,1.02
2023-09-22T17:58:36.576Z,1.40
2023-09-22T18:01:08.131Z,1.30
2023-09-22T18:03:36.807Z,1.37
2023-09-22T18:06:05.241Z,1.02
2023-09-22T18:08:33.464Z,1.30
2023-09-22T18:11:02.940Z,1.80
2023-09-22T18:13:31.850Z,1.65
2023-09-22T18:16:04.569Z,1.25
2023-09-22T18:18:37.425Z,1.30
2023-09-22T18:21:06.990Z,1.50
2023-09-22T18:23:38.920Z,1.62
2023-09-22T18:26:10.444Z,1.37
2023-09-22T18:28:39.524Z,1.70
2023-09-22T18:31:12.347Z,1.15
2023-09-22T18:33:41.446Z,1.90
2023-09-22T18:36:09.818Z,1.30
2023-09-22T18:38:38.202Z,1.42
2023-09-22T18:41:06.729Z,1.52
2023-09-22T18:43:35.349Z,1.20
2023-09-22T18:46:04.552Z,1.23
2023-09-22T18:48:33.291Z,1.42
2023-09-22T18:51:02.446Z,1.17
2023-09-22T18:53:31.629Z,1.50
2023-09-22T18:56:00.666Z,1.92
2023-09-22T18:58:29.356Z,1.35
2023-09-22T19:01:00.181Z,1.77
2023-09-22T19:03:34.805Z,1.45
2023-09-22T19:06:11.641Z,1.45
2023-09-22T19:08:41.087Z,1.50
2023-09-22T19:11:15.070Z,1.30
2023-09-22T19:13:43.726Z,1.40
2023-09-22T19:16:11.805Z,2.20
2023-09-22T19:18:45.020Z,1.20
2023-09-22T19:21:14.176Z,1.55
2023-09-22T19:23:43.893Z,1.50
2023-09-22T19:26:15.856Z,1.30
2023-09-22T19:28:44.656Z,1.60
2023-09-22T19:31:13.973Z,1.30
2023-09-22T19:33:42.860Z,1.30
2023-09-22T19:36:12.039Z,1.80
2023-09-22T19:38:40.195Z,1.30
2023-09-22T19:41:14.786Z,1.42
2023-09-22T19:43:43.476Z,1.20
2023-09-22T19:46:18.666Z,1.60
2023-09-22T19:48:50.765Z,1.67
2023-09-22T19:51:20.425Z,1.60
2023-09-22T19:53:50.536Z,1.50
2023-09-22T19:56:21.547Z,1.50
2023-09-22T19:58:49.999Z,1.20
2023-09-22T20:01:21.330Z,1.60
2023-09-22T20:03:50.709Z,1.45
2023-09-22T20:06:22.652Z,1.60
2023-09-22T20:08:53.784Z,1.42
2023-09-22T20:11:21.780Z,1.45
2023-09-22T20:13:50.048Z,1.48
2023-09-22T20:16:18.729Z,1.52
2023-09-22T20:18:47.370Z,2.15
2023-09-22T20:21:15.596Z,1.55
2023-09-22T20:23:46.435Z,1.83
2023-09-22T20:26:16.201Z,1.80
2023-09-22T20:28:45.473Z,1.65
2023-09-22T20:31:15.082Z,1.45
2023-09-22T20:33:43.297Z,1.90
2023-09-22T20:36:13.295Z,1.35
2023-09-22T20:38:46.694Z,1.80
2023-09-22T20:41:18.479Z,1.52
2023-09-22T20:43:50.918Z,1.48
2023-09-22T20:46:21.824Z,1.50
2023-09-22T20:48:52.123Z,1.70
2023-09-22T20:51:20.279Z,1.50
2023-09-22T20:53:48.984Z,1.40
2023-09-22T20:56:17.533Z,1.83
2023-09-22T20:58:46.420Z,1.20
2023-09-22T21:01:17.027Z,1.65
2023-09-22T21:03:46.291Z,1.60
2023-09-22T21:06:14.739Z,1.48
2023-09-22T21:08:44.642Z,1.30
2023-09-22T21:11:13.865Z,1.10
2023-09-22T21:13:42.936Z,2.00
2023-09-22T21:16:12.145Z,1.50
2023-09-22T21:18:40.501Z,1.65
2023-09-22T21:21:08.876Z,1.75
2023-09-22T21:23:37.209Z,1.35
2023-09-22T21:26:06.306Z,1.87
2023-09-22T21:28:35.022Z,1.75
2023-09-22T21:31:03.839Z,1.80
2023-09-22T21:33:32.435Z,1.50
2023-09-22T21:36:05.030Z,1.52
2023-09-22T21:38:33.340Z,1.70
2023-09-22T21:41:07.034Z,1.52
2023-09-22T21:43:35.293Z,1.50
2023-09-22T21:46:07.780Z,1.48
2023-09-22T21:48:38.152Z,1.70
2023-09-22T21:51:07.877Z,1.17
2023-09-22T21:53:36.734Z,1.42
2023-09-22T21:56:05.573Z,1.20
2023-09-22T21:58:34.317Z,1.92
2023-09-22T22:01:02.923Z,1.20
2023-09-22T22:03:31.775Z,1.75
2023-09-22T22:06:01.844Z,1.45
2023-09-22T22:08:30.000Z,1.70
2023-09-22T22:10:58.760Z,1.85
2023-09-22T22:13:32.870Z,1.85
2023-09-22T22:18:33.795Z,1.85
2023-09-22T22:21:10.358Z,1.45
2023-09-22T22:23:42.173Z,1.98
2023-09-22T22:26:17.901Z,1.80
2023-09-22T22:28:46.612Z,1.77
2023-09-22T22:31:17.467Z,1.50
2023-09-22T22:33:45.912Z,1.50
2023-09-22T22:36:15.004Z,1.48
2023-09-22T22:38:43.892Z,1.40
2023-09-22T22:41:13.550Z,2.17
2023-09-22T22:43:41.969Z,1.35
2023-09-22T22:46:11.295Z,1.52
2023-09-22T22:48:39.540Z,1.30
2023-09-22T22:51:07.698Z,2.05
2023-09-22T22:53:36.810Z,1.45
2023-09-22T22:56:05.554Z,1.60
2023-09-22T22:58:33.785Z,1.70
2023-09-22T23:01:02.268Z,1.70
2023-09-22T23:03:31.579Z,1.67
2023-09-22T23:06:00.231Z,1.60
2023-09-22T23:08:29.068Z,1.30
2023-09-22T23:11:07.808Z,2.08
2023-09-22T23:13:37.898Z,1.55
2023-09-22T23:16:07.516Z,1.50
2023-09-22T23:18:36.533Z,1.60
2023-09-22T23:21:08.633Z,1.83
2023-09-22T23:23:37.490Z,1.40
2023-09-22T23:26:07.567Z,1.40
2023-09-22T23:28:37.433Z,1.50
2023-09-22T23:31:06.755Z,1.50
2023-09-22T23:33:35.904Z,1.80
2023-09-22T23:36:05.111Z,1.73
2023-09-22T23:38:34.570Z,1.65
2023-09-22T23:41:08.082Z,1.73
2023-09-22T23:43:37.602Z,2.08
2023-09-22T23:46:09.654Z,1.83
2023-09-22T23:48:38.897Z,1.60
2023-09-22T23:51:08.783Z,1.75
2023-09-22T23:53:38.843Z,1.40
2023-09-22T23:56:07.150Z,1.77
2023-09-22T23:58:35.859Z,1.62
